Judi M. — WCX8376 — position and weather

sailwx.info

Track history (hours):
 
Tides and Currents Weather Stations Pressure Air Temp Water Temp Dewpoint Dewpoint Depression Visibility Wind Speed Wind Dir Waves Ship Positions

Judi M.

Owner: MANKE TUG & BARGE CO INC, SHELTON, WA. More information available from US FCC via Universal Licensing System and Coast Guard Vessel Documentation Center.

Last reported at 2016-Jul-29 09:33 UTC. Time now 2016-Jul-29 10:16 UTC.
Position N 47°34' W 122°22'.

Length 29 m; draft 4 m.

Type: Tow > 200 m length. MMSI: 366740920.

Date/timePositionNaut miles runAvg speedWind from/ knotsBaromVisibWave heightAir tempDewpointWater temp
2016-Jul-29 09:33N 47°34' W 122°22'2 1.6
2016-Jul-29 08:33N 47°36' W 122°23'5 5.5
2016-Jul-29 07:33N 47°40' W 122°29'6 5.9
2016-Jul-29 06:33N 47°45' W 122°27'6 6.0
2016-Jul-29 05:33N 47°51' W 122°29'6 6.2
2016-Jul-29 04:32N 47°57' W 122°34'6 6.0
2016-Jul-29 03:33N 48°02' W 122°39'7 2.1
2016-Jul-29 00:14N 48°06' W 122°48'0 0.0
2016-Jul-28 22:33N 48°06' W 122°48'0 0.0
2016-Jul-28 21:29N 48°06' W 122°48'0 0.0
2016-Jul-28 17:31N 48°06' W 122°48'0 0.0
2016-Jul-28 16:32N 48°06' W 122°48'6 1.1
2016-Jul-28 11:18N 48°06' W 122°39'810.1
2016-Jul-28 10:33N 47°59' W 122°35'8 8.3
2016-Jul-28 09:33N 47°53' W 122°28'7 7.3
2016-Jul-28 08:33N 47°45' W 122°26'7 6.9
2016-Jul-28 07:33N 47°39' W 122°27'5 5.5
2016-Jul-28 06:33N 47°34' W 122°22'0 0.0
2016-Jul-28 05:33N 47°34' W 122°22'0 0.0
2016-Jul-28 04:33N 47°34' W 122°22'  
2016-Jul-21 11:15N 47°34' W 122°22'1 1.4
2016-Jul-21 10:34N 47°35' W 122°22'4 4.2
2016-Jul-21 09:34N 47°38' W 122°27'5 5.2
2016-Jul-21 08:34N 47°43' W 122°28'6 5.7
2016-Jul-21 07:34N 47°49' W 122°28'5 5.3
2016-Jul-21 06:33N 47°54' W 122°30'4 4.1
2016-Jul-21 05:32N 47°57' W 122°34'4 3.8
2016-Jul-21 04:26N 48°00' W 122°38'8 1.9
2016-Jul-21 00:07N 48°06' W 122°48'0 0.0
2016-Jul-20 12:30N 48°06' W 122°48'3 2.6
2016-Jul-20 11:31N 48°06' W 122°44'7 5.4
2016-Jul-20 10:11N 48°01' W 122°36'4 6.1
2016-Jul-20 09:34N 47°58' W 122°34'6 6.3
2016-Jul-20 08:34N 47°53' W 122°28'7 7.1
2016-Jul-20 07:34N 47°46' W 122°26'7 7.1
2016-Jul-20 06:34N 47°39' W 122°27'6 5.6
2016-Jul-20 05:34N 47°34' W 122°22'  
Track history (hours):
 
Tides and Currents Weather Stations Pressure Air Temp Water Temp Dewpoint Dewpoint Depression Visibility Wind Speed Wind Dir Waves Ship Positions

Judi M.

Owner: MANKE TUG & BARGE CO INC, SHELTON, WA. More information available from US FCC via Universal Licensing System and Coast Guard Vessel Documentation Center.

Last reported at 2016-Jul-29 09:33 UTC. Time now 2016-Jul-29 10:16 UTC.
Position N 47°34' W 122°22'.

Length 29 m; draft 4 m.

Type: Tow > 200 m length. MMSI: 366740920.

Date/timePositionNaut miles runAvg speedWind from/ knotsBaromVisibWave heightAir tempDewpointWater temp
2016-Jul-29 09:33N 47°34' W 122°22'2 1.6
2016-Jul-29 08:33N 47°36' W 122°23'5 5.5
2016-Jul-29 07:33N 47°40' W 122°29'6 5.9
2016-Jul-29 06:33N 47°45' W 122°27'6 6.0
2016-Jul-29 05:33N 47°51' W 122°29'6 6.2
2016-Jul-29 04:32N 47°57' W 122°34'6 6.0
2016-Jul-29 03:33N 48°02' W 122°39'7 2.1
2016-Jul-29 00:14N 48°06' W 122°48'0 0.0
2016-Jul-28 22:33N 48°06' W 122°48'0 0.0
2016-Jul-28 21:29N 48°06' W 122°48'0 0.0
2016-Jul-28 17:31N 48°06' W 122°48'0 0.0
2016-Jul-28 16:32N 48°06' W 122°48'6 1.1
2016-Jul-28 11:18N 48°06' W 122°39'810.1
2016-Jul-28 10:33N 47°59' W 122°35'8 8.3
2016-Jul-28 09:33N 47°53' W 122°28'7 7.3
2016-Jul-28 08:33N 47°45' W 122°26'7 6.9
2016-Jul-28 07:33N 47°39' W 122°27'5 5.5
2016-Jul-28 06:33N 47°34' W 122°22'0 0.0
2016-Jul-28 05:33N 47°34' W 122°22'0 0.0
2016-Jul-28 04:33N 47°34' W 122°22'  
2016-Jul-21 11:15N 47°34' W 122°22'1 1.4
2016-Jul-21 10:34N 47°35' W 122°22'4 4.2
2016-Jul-21 09:34N 47°38' W 122°27'5 5.2
2016-Jul-21 08:34N 47°43' W 122°28'6 5.7
2016-Jul-21 07:34N 47°49' W 122°28'5 5.3
2016-Jul-21 06:33N 47°54' W 122°30'4 4.1
2016-Jul-21 05:32N 47°57' W 122°34'4 3.8
2016-Jul-21 04:26N 48°00' W 122°38'8 1.9
2016-Jul-21 00:07N 48°06' W 122°48'0 0.0
2016-Jul-20 12:30N 48°06' W 122°48'3 2.6
2016-Jul-20 11:31N 48°06' W 122°44'7 5.4
2016-Jul-20 10:11N 48°01' W 122°36'4 6.1
2016-Jul-20 09:34N 47°58' W 122°34'6 6.3
2016-Jul-20 08:34N 47°53' W 122°28'7 7.1
2016-Jul-20 07:34N 47°46' W 122°26'7 7.1
2016-Jul-20 06:34N 47°39' W 122°27'6 5.6
2016-Jul-20 05:34N 47°34' W 122°22'  

Dump ship's entire track history